Bloomsbury, New Jersey
Current Conditions -  °F | °C
As of 1:51 AM on Saturday 20 Dec 2014 (Local Time) from KABE Reporting Station
Overcast Overcast  
Wind Chill: 26°   Ceiling: 2400
Heat Index: 32°   Visibility: 10mi
Dew Point: 21°   Wind: 6mph
Humidity: 64%   Direction: 350°N
Pressure: 30.19"   Gusts: NA
Location:  40.65°N, 75.09°W
Report Text: KABE 200651Z 35005KT 10SM OVC024 00/M06 A3019 RMK AO2 SLP227 T00001061
Loading
Personal Weather Stations






























Interactive Weather Map New forecast layout! Learn more

10-Day Weather Forecast

Advertisements
Track Severe Weather on mobile